sensor_id;sensor_type;location;lat;lon;timestamp;temperature;humidity
25264;DHT22;13211;51.796;5.808;2022-12-18T10:33:44;-3.30;99.90
25264;DHT22;13211;51.796;5.808;2022-12-18T10:36:12;-0.20;99.90
25264;DHT22;13211;51.796;5.808;2022-12-18T10:38:40;-0.20;99.90
25264;DHT22;13211;51.796;5.808;2022-12-18T10:44:15;-0.10;99.90
25264;DHT22;13211;51.796;5.808;2022-12-18T10:46:50;-0.10;99.90
25264;DHT22;13211;51.796;5.808;2022-12-18T10:49:26;0.00;99.90
25264;DHT22;13211;51.796;5.808;2022-12-18T10:52:18;0.00;99.90
25264;DHT22;13211;51.796;5.808;2022-12-18T10:55:01;0.10;99.90
25264;DHT22;13211;51.796;5.808;2022-12-18T11:00:19;0.20;99.90
25264;DHT22;13211;51.796;5.808;2022-12-18T11:02:49;0.20;99.90
25264;DHT22;13211;51.796;5.808;2022-12-18T11:07:55;0.30;99.90
25264;DHT22;13211;51.796;5.808;2022-12-18T11:10:28;0.30;99.90
25264;DHT22;13211;51.796;5.808;2022-12-18T11:13:22;0.30;99.90
25264;DHT22;13211;51.796;5.808;2022-12-18T11:15:51;0.30;99.90
25264;DHT22;13211;51.796;5.808;2022-12-18T11:18:30;0.40;99.90
25264;DHT22;13211;51.796;5.808;2022-12-18T11:23:37;0.30;99.90
25264;DHT22;13211;51.796;5.808;2022-12-18T11:26:36;0.30;99.90
25264;DHT22;13211;51.796;5.808;2022-12-18T11:29:17;0.30;99.90
25264;DHT22;13211;51.796;5.808;2022-12-18T11:31:48;0.40;99.90
25264;DHT22;13211;51.796;5.808;2022-12-18T11:34:25;0.40;99.90
25264;DHT22;13211;51.796;5.808;2022-12-18T11:36:58;0.40;99.90
25264;DHT22;13211;51.796;5.808;2022-12-18T11:39:51;0.50;99.90
25264;DHT22;13211;51.796;5.808;2022-12-18T11:42:41;0.50;99.90
25264;DHT22;13211;51.796;5.808;2022-12-18T11:50:24;0.70;99.90
25264;DHT22;13211;51.796;5.808;2022-12-18T11:52:52;0.70;99.90
25264;DHT22;13211;51.796;5.808;2022-12-18T12:01:11;0.80;99.90
25264;DHT22;13211;51.796;5.808;2022-12-18T12:06:52;0.80;99.90
25264;DHT22;13211;51.796;5.808;2022-12-18T12:09:44;0.80;99.90
25264;DHT22;13211;51.796;5.808;2022-12-18T12:15:42;1.00;99.90
25264;DHT22;13211;51.796;5.808;2022-12-18T12:18:32;1.00;99.90
25264;DHT22;13211;51.796;5.808;2022-12-18T12:21:13;1.00;99.90
25264;DHT22;13211;51.796;5.808;2022-12-18T12:26:36;1.10;99.90
25264;DHT22;13211;51.796;5.808;2022-12-18T12:32:14;1.10;99.90
25264;DHT22;13211;51.796;5.808;2022-12-18T12:35:03;1.10;99.90
25264;DHT22;13211;51.796;5.808;2022-12-18T12:40:27;1.10;99.90
25264;DHT22;13211;51.796;5.808;2022-12-18T12:46:06;1.10;99.90
25264;DHT22;13211;51.796;5.808;2022-12-18T12:48:52;1.10;99.90
25264;DHT22;13211;51.796;5.808;2022-12-18T12:53:56;1.10;99.90
25264;DHT22;13211;51.796;5.808;2022-12-18T12:56:31;1.20;99.90
25264;DHT22;13211;51.796;5.808;2022-12-18T12:59:19;1.20;99.90
25264;DHT22;13211;51.796;5.808;2022-12-18T13:04:57;1.20;99.90
25264;DHT22;13211;51.796;5.808;2022-12-18T13:07:54;1.20;99.90
25264;DHT22;13211;51.796;5.808;2022-12-18T13:18:19;1.00;99.90
25264;DHT22;13211;51.796;5.808;2022-12-18T13:23:35;1.10;99.90
25264;DHT22;13211;51.796;5.808;2022-12-18T13:34:20;1.00;99.90
25264;DHT22;13211;51.796;5.808;2022-12-18T13:36:56;1.00;99.90
25264;DHT22;13211;51.796;5.808;2022-12-18T13:39:34;1.00;99.90
25264;DHT22;13211;51.796;5.808;2022-12-18T13:44:34;1.00;99.90
25264;DHT22;13211;51.796;5.808;2022-12-18T13:47:26;1.00;99.90
25264;DHT22;13211;51.796;5.808;2022-12-18T13:49:56;1.00;99.90
25264;DHT22;13211;51.796;5.808;2022-12-18T13:52:34;1.00;99.90
25264;DHT22;13211;51.796;5.808;2022-12-18T13:55:07;1.00;99.90
25264;DHT22;13211;51.796;5.808;2022-12-18T13:57:38;1.00;99.90
25264;DHT22;13211;51.796;5.808;2022-12-18T14:00:26;1.00;99.90
25264;DHT22;13211;51.796;5.808;2022-12-18T14:02:57;1.10;99.90
25264;DHT22;13211;51.796;5.808;2022-12-18T14:05:31;1.10;99.90
25264;DHT22;13211;51.796;5.808;2022-12-18T14:08:10;1.10;99.90
25264;DHT22;13211;51.796;5.808;2022-12-18T14:10:43;1.10;99.90
25264;DHT22;13211;51.796;5.808;2022-12-18T14:13:26;1.10;99.90
25264;DHT22;13211;51.796;5.808;2022-12-18T14:15:55;1.00;99.90
25264;DHT22;13211;51.796;5.808;2022-12-18T14:18:57;1.10;99.90
25264;DHT22;13211;51.796;5.808;2022-12-18T14:21:46;1.00;99.90
25264;DHT22;13211;51.796;5.808;2022-12-18T14:24:19;1.00;99.90
25264;DHT22;13211;51.796;5.808;2022-12-18T14:26:49;1.10;99.90
25264;DHT22;13211;51.796;5.808;2022-12-18T14:29:26;1.00;99.90
25264;DHT22;13211;51.796;5.808;2022-12-18T14:32:18;1.00;99.90
25264;DHT22;13211;51.796;5.808;2022-12-18T14:34:53;1.00;99.90
25264;DHT22;13211;51.796;5.808;2022-12-18T14:37:24;1.10;99.90
25264;DHT22;13211;51.796;5.808;2022-12-18T14:39:58;1.10;99.90
25264;DHT22;13211;51.796;5.808;2022-12-18T14:42:30;1.10;99.90
25264;DHT22;13211;51.796;5.808;2022-12-18T14:50:41;1.10;99.90
25264;DHT22;13211;51.796;5.808;2022-12-18T14:53:26;1.10;99.90
25264;DHT22;13211;51.796;5.808;2022-12-18T14:55:57;1.10;99.90
25264;DHT22;13211;51.796;5.808;2022-12-18T14:58:25;1.10;99.90
25264;DHT22;13211;51.796;5.808;2022-12-18T15:00:55;1.20;99.90
25264;DHT22;13211;51.796;5.808;2022-12-18T15:03:22;1.10;99.90
25264;DHT22;13211;51.796;5.808;2022-12-18T15:05:51;1.20;99.90
25264;DHT22;13211;51.796;5.808;2022-12-18T15:08:37;1.20;99.90
25264;DHT22;13211;51.796;5.808;2022-12-18T15:11:29;1.20;99.90
25264;DHT22;13211;51.796;5.808;2022-12-18T15:14:43;1.10;99.90
25264;DHT22;13211;51.796;5.808;2022-12-18T15:17:22;1.00;99.90
25264;DHT22;13211;51.796;5.808;2022-12-18T15:20:02;1.00;99.90
25264;DHT22;13211;51.796;5.808;2022-12-18T15:22:37;0.90;99.90
25264;DHT22;13211;51.796;5.808;2022-12-18T15:25:32;0.90;99.90
25264;DHT22;13211;51.796;5.808;2022-12-18T15:28:01;0.90;99.90
25264;DHT22;13211;51.796;5.808;2022-12-18T15:30:29;0.90;99.90
25264;DHT22;13211;51.796;5.808;2022-12-18T15:33:25;0.90;99.90
25264;DHT22;13211;51.796;5.808;2022-12-18T15:36:01;0.80;99.90
25264;DHT22;13211;51.796;5.808;2022-12-18T15:38:29;0.80;99.90
25264;DHT22;13211;51.796;5.808;2022-12-18T15:40:57;0.80;99.90
25264;DHT22;13211;51.796;5.808;2022-12-18T15:43:26;0.80;99.90
25264;DHT22;13211;51.796;5.808;2022-12-18T15:46:12;0.80;99.90
25264;DHT22;13211;51.796;5.808;2022-12-18T15:51:34;0.80;99.90
25264;DHT22;13211;51.796;5.808;2022-12-18T15:54:05;0.80;99.90
25264;DHT22;13211;51.796;5.808;2022-12-18T15:56:33;0.80;99.90
25264;DHT22;13211;51.796;5.808;2022-12-18T15:59:20;0.80;99.90
25264;DHT22;13211;51.796;5.808;2022-12-18T16:01:50;0.80;99.90
25264;DHT22;13211;51.796;5.808;2022-12-18T16:04:32;0.80;99.90
25264;DHT22;13211;51.796;5.808;2022-12-18T16:07:02;0.80;99.90
25264;DHT22;13211;51.796;5.808;2022-12-18T16:09:50;0.80;99.90
25264;DHT22;13211;51.796;5.808;2022-12-18T16:12:21;0.80;99.90
25264;DHT22;13211;51.796;5.808;2022-12-18T16:14:49;0.80;99.90
25264;DHT22;13211;51.796;5.808;2022-12-18T16:17:18;0.80;99.90
25264;DHT22;13211;51.796;5.808;2022-12-18T16:19:48;0.80;99.90
25264;DHT22;13211;51.796;5.808;2022-12-18T16:22:22;0.70;99.90
25264;DHT22;13211;51.796;5.808;2022-12-18T16:24:52;0.70;99.90
25264;DHT22;13211;51.796;5.808;2022-12-18T16:27:21;0.70;99.90
25264;DHT22;13211;51.796;5.808;2022-12-18T16:29:49;0.70;99.90
25264;DHT22;13211;51.796;5.808;2022-12-18T16:32:20;0.70;99.90
25264;DHT22;13211;51.796;5.808;2022-12-18T16:34:49;0.70;99.90
25264;DHT22;13211;51.796;5.808;2022-12-18T16:37:17;0.70;99.90
25264;DHT22;13211;51.796;5.808;2022-12-18T16:39:45;0.70;99.90
25264;DHT22;13211;51.796;5.808;2022-12-18T16:42:16;0.70;99.90
25264;DHT22;13211;51.796;5.808;2022-12-18T16:44:48;0.80;99.90
25264;DHT22;13211;51.796;5.808;2022-12-18T16:47:16;0.70;99.90
25264;DHT22;13211;51.796;5.808;2022-12-18T16:49:45;0.70;99.90
25264;DHT22;13211;51.796;5.808;2022-12-18T16:52:14;0.80;99.90
25264;DHT22;13211;51.796;5.808;2022-12-18T16:54:43;0.70;99.90
25264;DHT22;13211;51.796;5.808;2022-12-18T16:57:13;0.80;99.90
25264;DHT22;13211;51.796;5.808;2022-12-18T16:59:42;0.80;99.90
25264;DHT22;13211;51.796;5.808;2022-12-18T17:02:16;0.80;99.90
25264;DHT22;13211;51.796;5.808;2022-12-18T17:04:52;0.70;99.90
25264;DHT22;13211;51.796;5.808;2022-12-18T17:07:20;0.70;99.90
25264;DHT22;13211;51.796;5.808;2022-12-18T17:09:48;0.70;99.90
25264;DHT22;13211;51.796;5.808;2022-12-18T17:12:20;0.70;99.90
25264;DHT22;13211;51.796;5.808;2022-12-18T17:14:51;0.70;99.90
25264;DHT22;13211;51.796;5.808;2022-12-18T17:17:20;0.70;99.90
25264;DHT22;13211;51.796;5.808;2022-12-18T17:19:51;0.70;99.90
25264;DHT22;13211;51.796;5.808;2022-12-18T17:22:19;0.70;99.90
25264;DHT22;13211;51.796;5.808;2022-12-18T17:24:48;0.70;99.90
25264;DHT22;13211;51.796;5.808;2022-12-18T17:27:15;0.70;99.90
25264;DHT22;13211;51.796;5.808;2022-12-18T17:29:44;0.70;99.90
25264;DHT22;13211;51.796;5.808;2022-12-18T17:32:15;0.70;99.90
25264;DHT22;13211;51.796;5.808;2022-12-18T17:34:43;0.70;99.90
25264;DHT22;13211;51.796;5.808;2022-12-18T17:37:12;0.60;99.90
25264;DHT22;13211;51.796;5.808;2022-12-18T17:39:39;0.70;99.90
25264;DHT22;13211;51.796;5.808;2022-12-18T17:42:07;0.70;99.90
25264;DHT22;13211;51.796;5.808;2022-12-18T17:44:42;0.70;99.90
25264;DHT22;13211;51.796;5.808;2022-12-18T17:47:12;0.70;99.90
25264;DHT22;13211;51.796;5.808;2022-12-18T17:49:39;0.70;99.90
25264;DHT22;13211;51.796;5.808;2022-12-18T17:52:06;0.70;99.90
25264;DHT22;13211;51.796;5.808;2022-12-18T17:54:35;0.70;99.90
25264;DHT22;13211;51.796;5.808;2022-12-18T17:57:05;0.70;99.90
25264;DHT22;13211;51.796;5.808;2022-12-18T17:59:33;0.70;99.90
25264;DHT22;13211;51.796;5.808;2022-12-18T18:02:01;0.70;99.90
25264;DHT22;13211;51.796;5.808;2022-12-18T18:04:29;0.70;99.90
25264;DHT22;13211;51.796;5.808;2022-12-18T18:06:56;0.70;99.90
25264;DHT22;13211;51.796;5.808;2022-12-18T18:09:23;0.70;99.90
25264;DHT22;13211;51.796;5.808;2022-12-18T18:11:51;0.60;99.90
25264;DHT22;13211;51.796;5.808;2022-12-18T18:14:37;0.70;99.90
25264;DHT22;13211;51.796;5.808;2022-12-18T18:17:05;0.70;99.90
25264;DHT22;13211;51.796;5.808;2022-12-18T18:19:32;0.70;99.90
25264;DHT22;13211;51.796;5.808;2022-12-18T18:22:00;0.70;99.90
25264;DHT22;13211;51.796;5.808;2022-12-18T18:24:32;0.70;99.90
25264;DHT22;13211;51.796;5.808;2022-12-18T18:27:02;0.70;99.90
25264;DHT22;13211;51.796;5.808;2022-12-18T18:29:29;0.70;99.90
25264;DHT22;13211;51.796;5.808;2022-12-18T18:31:57;0.70;99.90
25264;DHT22;13211;51.796;5.808;2022-12-18T18:34:27;0.70;99.90
25264;DHT22;13211;51.796;5.808;2022-12-18T18:36:55;0.70;99.90
25264;DHT22;13211;51.796;5.808;2022-12-18T18:39:25;0.70;99.90
25264;DHT22;13211;51.796;5.808;2022-12-18T18:41:53;0.70;99.90
25264;DHT22;13211;51.796;5.808;2022-12-18T18:44:21;0.70;99.90
25264;DHT22;13211;51.796;5.808;2022-12-18T18:46:56;0.80;99.90
25264;DHT22;13211;51.796;5.808;2022-12-18T18:49:24;0.80;99.90
25264;DHT22;13211;51.796;5.808;2022-12-18T18:51:54;0.80;99.90
25264;DHT22;13211;51.796;5.808;2022-12-18T18:54:22;0.80;99.90
25264;DHT22;13211;51.796;5.808;2022-12-18T18:56:50;0.80;99.90
25264;DHT22;13211;51.796;5.808;2022-12-18T18:59:37;0.90;99.90
25264;DHT22;13211;51.796;5.808;2022-12-18T19:02:07;0.90;99.90
25264;DHT22;13211;51.796;5.808;2022-12-18T19:04:35;0.90;99.90
25264;DHT22;13211;51.796;5.808;2022-12-18T19:07:12;0.80;99.90
25264;DHT22;13211;51.796;5.808;2022-12-18T19:09:56;0.90;99.90
25264;DHT22;13211;51.796;5.808;2022-12-18T19:12:27;0.90;99.90
25264;DHT22;13211;51.796;5.808;2022-12-18T19:15:13;0.90;99.90
25264;DHT22;13211;51.796;5.808;2022-12-18T19:17:41;0.90;99.90
25264;DHT22;13211;51.796;5.808;2022-12-18T19:20:15;0.90;99.90
25264;DHT22;13211;51.796;5.808;2022-12-18T19:22:43;0.90;99.90
25264;DHT22;13211;51.796;5.808;2022-12-18T19:25:25;0.90;99.90
25264;DHT22;13211;51.796;5.808;2022-12-18T19:28:07;0.90;99.90
25264;DHT22;13211;51.796;5.808;2022-12-18T19:30:49;0.90;99.90
25264;DHT22;13211;51.796;5.808;2022-12-18T19:33:26;0.90;99.90
25264;DHT22;13211;51.796;5.808;2022-12-18T19:36:22;1.00;99.90
25264;DHT22;13211;51.796;5.808;2022-12-18T19:38:50;0.90;99.90
25264;DHT22;13211;51.796;5.808;2022-12-18T19:41:20;1.00;99.90
25264;DHT22;13211;51.796;5.808;2022-12-18T19:43:50;0.90;99.90
25264;DHT22;13211;51.796;5.808;2022-12-18T19:46:20;1.00;99.90
25264;DHT22;13211;51.796;5.808;2022-12-18T19:48:49;1.00;99.90
25264;DHT22;13211;51.796;5.808;2022-12-18T19:51:19;1.00;99.90
25264;DHT22;13211;51.796;5.808;2022-12-18T19:53:48;1.00;99.90
25264;DHT22;13211;51.796;5.808;2022-12-18T19:56:25;1.00;99.90
25264;DHT22;13211;51.796;5.808;2022-12-18T19:58:54;1.00;99.90
25264;DHT22;13211;51.796;5.808;2022-12-18T20:01:23;1.00;99.90
25264;DHT22;13211;51.796;5.808;2022-12-18T20:03:51;1.00;99.90
25264;DHT22;13211;51.796;5.808;2022-12-18T20:08:57;1.00;99.90
25264;DHT22;13211;51.796;5.808;2022-12-18T20:11:28;1.00;99.90
25264;DHT22;13211;51.796;5.808;2022-12-18T20:13:56;1.00;99.90
25264;DHT22;13211;51.796;5.808;2022-12-18T20:16:24;1.00;99.90
25264;DHT22;13211;51.796;5.808;2022-12-18T20:18:51;1.00;99.90
25264;DHT22;13211;51.796;5.808;2022-12-18T20:21:18;1.00;99.90
25264;DHT22;13211;51.796;5.808;2022-12-18T20:23:46;1.00;99.90
25264;DHT22;13211;51.796;5.808;2022-12-18T20:26:15;1.10;99.90
25264;DHT22;13211;51.796;5.808;2022-12-18T20:28:42;1.00;99.90
25264;DHT22;13211;51.796;5.808;2022-12-18T20:31:10;1.00;99.90
25264;DHT22;13211;51.796;5.808;2022-12-18T20:33:40;1.00;99.90
25264;DHT22;13211;51.796;5.808;2022-12-18T20:36:13;1.00;99.90
25264;DHT22;13211;51.796;5.808;2022-12-18T20:38:42;1.00;99.90
25264;DHT22;13211;51.796;5.808;2022-12-18T20:41:12;1.00;99.90
25264;DHT22;13211;51.796;5.808;2022-12-18T20:43:41;1.00;99.90
25264;DHT22;13211;51.796;5.808;2022-12-18T20:46:11;1.00;99.90
25264;DHT22;13211;51.796;5.808;2022-12-18T20:48:41;1.00;99.90
25264;DHT22;13211;51.796;5.808;2022-12-18T20:51:14;1.00;99.90
25264;DHT22;13211;51.796;5.808;2022-12-18T20:53:43;1.00;99.90
25264;DHT22;13211;51.796;5.808;2022-12-18T20:56:15;1.00;99.90
25264;DHT22;13211;51.796;5.808;2022-12-18T20:58:49;1.00;99.90
25264;DHT22;13211;51.796;5.808;2022-12-18T21:01:22;1.00;99.90
25264;DHT22;13211;51.796;5.808;2022-12-18T21:03:51;1.00;99.90
25264;DHT22;13211;51.796;5.808;2022-12-18T21:06:20;1.00;99.90
25264;DHT22;13211;51.796;5.808;2022-12-18T21:08:48;1.00;99.90
25264;DHT22;13211;51.796;5.808;2022-12-18T21:16:38;1.00;99.90
25264;DHT22;13211;51.796;5.808;2022-12-18T21:19:06;1.00;99.90
25264;DHT22;13211;51.796;5.808;2022-12-18T21:21:34;1.00;99.90
25264;DHT22;13211;51.796;5.808;2022-12-18T21:24:06;1.00;99.90
25264;DHT22;13211;51.796;5.808;2022-12-18T21:26:35;1.00;99.90
25264;DHT22;13211;51.796;5.808;2022-12-18T21:29:14;1.00;99.90
25264;DHT22;13211;51.796;5.808;2022-12-18T21:31:42;1.00;99.90
25264;DHT22;13211;51.796;5.808;2022-12-18T21:34:14;1.00;99.90
25264;DHT22;13211;51.796;5.808;2022-12-18T21:36:44;1.00;99.90
25264;DHT22;13211;51.796;5.808;2022-12-18T21:39:14;1.10;99.90
25264;DHT22;13211;51.796;5.808;2022-12-18T21:41:41;1.00;99.90
25264;DHT22;13211;51.796;5.808;2022-12-18T21:44:30;1.10;99.90
25264;DHT22;13211;51.796;5.808;2022-12-18T21:47:02;1.10;99.90
25264;DHT22;13211;51.796;5.808;2022-12-18T21:49:51;1.10;99.90
25264;DHT22;13211;51.796;5.808;2022-12-18T21:52:20;1.10;99.90
25264;DHT22;13211;51.796;5.808;2022-12-18T21:54:59;1.20;99.90
25264;DHT22;13211;51.796;5.808;2022-12-18T21:57:38;1.10;99.90
25264;DHT22;13211;51.796;5.808;2022-12-18T22:00:06;1.10;99.90
25264;DHT22;13211;51.796;5.808;2022-12-18T22:02:39;1.10;99.90
25264;DHT22;13211;51.796;5.808;2022-12-18T22:05:07;1.00;99.90
25264;DHT22;13211;51.796;5.808;2022-12-18T22:07:34;1.00;99.90
25264;DHT22;13211;51.796;5.808;2022-12-18T22:10:01;1.00;99.90
25264;DHT22;13211;51.796;5.808;2022-12-18T22:12:29;1.00;99.90
25264;DHT22;13211;51.796;5.808;2022-12-18T22:15:11;1.00;99.90
25264;DHT22;13211;51.796;5.808;2022-12-18T22:17:49;1.00;99.90
25264;DHT22;13211;51.796;5.808;2022-12-18T22:20:26;1.00;99.90
25264;DHT22;13211;51.796;5.808;2022-12-18T22:22:56;1.00;99.90
25264;DHT22;13211;51.796;5.808;2022-12-18T22:25:25;1.10;99.90
25264;DHT22;13211;51.796;5.808;2022-12-18T22:27:52;1.10;99.90
25264;DHT22;13211;51.796;5.808;2022-12-18T22:30:38;1.10;99.90
25264;DHT22;13211;51.796;5.808;2022-12-18T22:33:05;1.10;99.90
25264;DHT22;13211;51.796;5.808;2022-12-18T22:35:36;1.10;99.90
25264;DHT22;13211;51.796;5.808;2022-12-18T22:38:04;1.20;99.90
25264;DHT22;13211;51.796;5.808;2022-12-18T22:40:32;1.10;99.90
25264;DHT22;13211;51.796;5.808;2022-12-18T22:43:01;1.10;99.90
25264;DHT22;13211;51.796;5.808;2022-12-18T22:45:28;1.10;99.90
25264;DHT22;13211;51.796;5.808;2022-12-18T22:47:58;1.10;99.90
25264;DHT22;13211;51.796;5.808;2022-12-18T22:50:29;1.10;99.90
25264;DHT22;13211;51.796;5.808;2022-12-18T22:52:57;1.20;99.90
25264;DHT22;13211;51.796;5.808;2022-12-18T22:55:24;1.10;99.90
25264;DHT22;13211;51.796;5.808;2022-12-18T22:57:51;1.20;99.90
25264;DHT22;13211;51.796;5.808;2022-12-18T23:00:19;1.20;99.90
25264;DHT22;13211;51.796;5.808;2022-12-18T23:02:51;1.20;99.90
25264;DHT22;13211;51.796;5.808;2022-12-18T23:05:27;1.20;99.90
25264;DHT22;13211;51.796;5.808;2022-12-18T23:07:54;1.20;99.90
25264;DHT22;13211;51.796;5.808;2022-12-18T23:10:22;1.20;99.90
25264;DHT22;13211;51.796;5.808;2022-12-18T23:12:49;1.20;99.90
25264;DHT22;13211;51.796;5.808;2022-12-18T23:15:16;1.20;99.90
25264;DHT22;13211;51.796;5.808;2022-12-18T23:17:50;1.20;99.90
25264;DHT22;13211;51.796;5.808;2022-12-18T23:20:18;1.30;99.90
25264;DHT22;13211;51.796;5.808;2022-12-18T23:22:45;1.30;99.90
25264;DHT22;13211;51.796;5.808;2022-12-18T23:25:13;1.30;99.90
25264;DHT22;13211;51.796;5.808;2022-12-18T23:27:41;1.20;99.90
25264;DHT22;13211;51.796;5.808;2022-12-18T23:30:10;1.30;99.90
25264;DHT22;13211;51.796;5.808;2022-12-18T23:32:37;1.20;99.90
25264;DHT22;13211;51.796;5.808;2022-12-18T23:35:05;1.20;99.90
25264;DHT22;13211;51.796;5.808;2022-12-18T23:37:34;1.20;99.90
25264;DHT22;13211;51.796;5.808;2022-12-18T23:40:22;1.30;99.90
25264;DHT22;13211;51.796;5.808;2022-12-18T23:42:49;1.30;99.90
25264;DHT22;13211;51.796;5.808;2022-12-18T23:45:16;1.20;99.90
25264;DHT22;13211;51.796;5.808;2022-12-18T23:47:45;1.30;99.90
25264;DHT22;13211;51.796;5.808;2022-12-18T23:50:18;1.20;99.90
25264;DHT22;13211;51.796;5.808;2022-12-18T23:52:53;1.30;99.90
25264;DHT22;13211;51.796;5.808;2022-12-18T23:55:32;1.30;99.90
25264;DHT22;13211;51.796;5.808;2022-12-18T23:58:01;1.20;99.90
